Geervliet — PCLI — position and weather

sailwx.info

Track history (hours):
 
Tides and Currents Weather Stations Pressure Air Temp Water Temp Dewpoint Dewpoint Depression Visibility Wind Speed Wind Dir Waves Ship Positions

Geervliet

Last reported at 2016-Jul-20 05:33 UTC. Time now 2016-Jul-25 17:46 UTC.
Position N 37°47' E 016°02'.

Length 86 m; draft 3.5 m.

Type: Ship. MMSI: 246803000.

Date/timePositionNaut miles runAvg speedWind from/ knotsBaromVisibWave heightAir tempDewpointWater temp
2016-Jul-20 05:33N 37°47' E 016°02'1110.7
2016-Jul-20 04:33N 37°50' E 015°49'1010.4
2016-Jul-20 03:33N 37°53' E 015°36'1111.3
2016-Jul-20 02:33N 38°05' E 015°35'1211.6
2016-Jul-20 01:34N 38°16' E 015°39'9 9.0
2016-Jul-20 00:33N 38°20' E 015°29'1212.1
2016-Jul-19 23:33N 38°18' E 015°14'1212.3
2016-Jul-19 22:33N 38°17' E 014°58'1212.1
2016-Jul-19 21:33N 38°16' E 014°43'1311.6
2016-Jul-19 20:24N 38°14' E 014°26'1111.2
2016-Jul-19 19:25N 38°13' E 014°12'1011.1
2016-Jul-19 18:33N 38°12' E 013°60'1111.1
2016-Jul-19 17:33N 38°10' E 013°46'1111.1
2016-Jul-19 16:33N 38°09' E 013°32'8 7.5
2016-Jul-19 15:32N 38°08' E 013°22'0 0.0
2016-Jul-19 14:32N 38°08' E 013°22'0 0.0
2016-Jul-19 13:32N 38°08' E 013°22'0 0.0
2016-Jul-19 12:29N 38°08' E 013°22'0 0.0
2016-Jul-19 11:32N 38°08' E 013°22'0 0.0
2016-Jul-19 10:32N 38°08' E 013°22'0 0.0
2016-Jul-19 09:32N 38°08' E 013°22'0 0.0
2016-Jul-19 08:32N 38°08' E 013°22'0 0.0
2016-Jul-19 07:32N 38°08' E 013°22'0 0.0
2016-Jul-19 04:32N 38°08' E 013°22'0 0.0
2016-Jul-19 03:32N 38°08' E 013°22'0 0.0
2016-Jul-19 02:32N 38°08' E 013°22'0 0.0
2016-Jul-19 01:32N 38°08' E 013°22'0 0.0
2016-Jul-19 00:32N 38°08' E 013°22'0 0.0
2016-Jul-18 23:32N 38°08' E 013°22'0 0.0
2016-Jul-18 22:32N 38°08' E 013°22'0 0.0
2016-Jul-18 21:32N 38°08' E 013°22'0 0.0
2016-Jul-18 20:32N 38°08' E 013°22'0 0.0
2016-Jul-18 19:32N 38°08' E 013°22'0 0.0
2016-Jul-18 18:32N 38°08' E 013°22'0 0.0
2016-Jul-18 17:32N 38°08' E 013°22'0 0.0
2016-Jul-18 16:32N 38°08' E 013°22'0 0.0
2016-Jul-18 15:32N 38°08' E 013°22'0 0.0
2016-Jul-18 14:32N 38°08' E 013°22'0 0.0
2016-Jul-18 13:32N 38°08' E 013°22'0 0.0
2016-Jul-18 12:32N 38°08' E 013°22'0 0.0
2016-Jul-18 11:32N 38°08' E 013°22'0 0.0
2016-Jul-18 10:32N 38°08' E 013°22'0 0.0
2016-Jul-18 09:32N 38°08' E 013°22'0 0.0
2016-Jul-18 08:32N 38°08' E 013°22'0 0.0
2016-Jul-18 07:32N 38°08' E 013°22'0 0.0
2016-Jul-18 06:32N 38°08' E 013°22'0 0.0
2016-Jul-18 05:32N 38°08' E 013°22'0 0.0
2016-Jul-18 04:32N 38°08' E 013°22'0 0.0
2016-Jul-18 03:32N 38°08' E 013°22'0 0.0
2016-Jul-18 02:32N 38°08' E 013°22'0 0.0
2016-Jul-18 01:32N 38°08' E 013°22'0 0.0
2016-Jul-18 00:32N 38°08' E 013°22'0 0.0
2016-Jul-17 23:32N 38°08' E 013°22'0 0.0
2016-Jul-17 22:32N 38°08' E 013°22'0 0.0
2016-Jul-17 21:32N 38°08' E 013°22'0 0.0
2016-Jul-17 20:32N 38°08' E 013°22'0 0.0
2016-Jul-17 19:32N 38°08' E 013°22'0 0.0
2016-Jul-17 18:32N 38°08' E 013°22'0 0.0
2016-Jul-17 17:32N 38°08' E 013°22'0 0.0
2016-Jul-17 16:32N 38°08' E 013°22'0 0.0
2016-Jul-17 15:32N 38°08' E 013°22'0 0.0
2016-Jul-17 14:32N 38°08' E 013°22'2 2.4
2016-Jul-17 13:33N 38°09' E 013°25'2 2.2
2016-Jul-17 12:34N 38°11' E 013°24'9 8.6
2016-Jul-17 11:33N 38°15' E 013°14'1110.8
2016-Jul-17 10:33N 38°15' E 013°00'1210.9
2016-Jul-17 09:30N 38°15' E 012°46'1010.4
2016-Jul-17 08:33N 38°14' E 012°33'8910.9
2016-Jul-17 00:26N 38°03' E 010°41'1111.1
2016-Jul-16 23:28N 38°02' E 010°28'6511.1
2016-Jul-16 17:33N 37°53' E 009°06'39510.3
2016-Jul-15 03:17N 37°01' E 000°53'10 9.7
2016-Jul-15 02:16N 36°60' E 000°41'7 9.8
2016-Jul-15 01:33N 36°58' E 000°32'10 9.9
2016-Jul-15 00:33N 36°55' E 000°20'1010.1
2016-Jul-14 23:33N 36°53' E 000°08'1010.5
2016-Jul-14 22:33N 36°50' W 000°04'1110.7
2016-Jul-14 21:31N 36°47' W 000°18'1010.7
2016-Jul-14 20:33N 36°44' W 000°30'1110.9
2016-Jul-14 19:33N 36°41' W 000°43'1410.6
2016-Jul-14 18:16N 36°37' W 000°59'20410.2
2016-Jul-13 22:14N 35°56' W 005°07'811.5
2016-Jul-13 21:33N 35°55' W 005°16'3 2.5
2016-Jul-13 20:32N 35°54' W 005°19'0 0.0
2016-Jul-13 19:32N 35°54' W 005°19'0 0.0
2016-Jul-13 18:32N 35°54' W 005°19'1 0.5
2016-Jul-13 17:33N 35°54' W 005°19'1 1.3
2016-Jul-13 16:32N 35°55' W 005°19'0 0.0
2016-Jul-13 15:32N 35°55' W 005°19'0 0.0
2016-Jul-13 14:32N 35°55' W 005°19'0 0.0
2016-Jul-13 13:32N 35°55' W 005°19'0 0.0
2016-Jul-13 12:32N 35°55' W 005°20'0 0.0
2016-Jul-13 11:32N 35°55' W 005°19'0 0.0
2016-Jul-13 10:32N 35°55' W 005°19'0 0.0
2016-Jul-13 09:32N 35°55' W 005°20'0 0.0
2016-Jul-13 08:32N 35°55' W 005°19'0 0.0
2016-Jul-13 07:26N 35°55' W 005°19'0 0.0
2016-Jul-13 06:32N 35°55' W 005°19'0 0.0
2016-Jul-13 05:32N 35°55' W 005°19'0 0.0
2016-Jul-13 04:32N 35°55' W 005°19'4 4.0
2016-Jul-13 03:33N 35°58' W 005°23'11611.4
2016-Jul-12 17:24N 36°14' W 007°45'9110.9
2016-Jul-12 09:05N 36°45' W 009°30'911.0
2016-Jul-12 08:13N 36°54' W 009°35'2311.1
2016-Jul-12 06:08N 37°16' W 009°42'2111.3
2016-Jul-12 04:15N 37°37' W 009°48'811.5
2016-Jul-12 03:33N 37°45' W 009°50'1211.1
2016-Jul-12 02:29N 37°57' W 009°53'1111.5
2016-Jul-12 01:29N 38°08' W 009°56'1111.4
2016-Jul-12 00:33N 38°18' W 009°59'1211.6
2016-Jul-11 23:33N 38°29' W 010°03'1211.6
2016-Jul-11 22:33N 38°41' W 010°06'1411.6
2016-Jul-11 21:23N 38°54' W 010°07'1011.5
2016-Jul-11 20:29N 39°04' W 010°07'1311.5
2016-Jul-11 19:24N 39°17' W 010°09'  
Track history (hours):
 
Tides and Currents Weather Stations Pressure Air Temp Water Temp Dewpoint Dewpoint Depression Visibility Wind Speed Wind Dir Waves Ship Positions

Geervliet

Last reported at 2016-Jul-20 05:33 UTC. Time now 2016-Jul-25 17:46 UTC.
Position N 37°47' E 016°02'.

Length 86 m; draft 3.5 m.

Type: Ship. MMSI: 246803000.

Date/timePositionNaut miles runAvg speedWind from/ knotsBaromVisibWave heightAir tempDewpointWater temp
2016-Jul-20 05:33N 37°47' E 016°02'1110.7
2016-Jul-20 04:33N 37°50' E 015°49'1010.4
2016-Jul-20 03:33N 37°53' E 015°36'1111.3
2016-Jul-20 02:33N 38°05' E 015°35'1211.6
2016-Jul-20 01:34N 38°16' E 015°39'9 9.0
2016-Jul-20 00:33N 38°20' E 015°29'1212.1
2016-Jul-19 23:33N 38°18' E 015°14'1212.3
2016-Jul-19 22:33N 38°17' E 014°58'1212.1
2016-Jul-19 21:33N 38°16' E 014°43'1311.6
2016-Jul-19 20:24N 38°14' E 014°26'1111.2
2016-Jul-19 19:25N 38°13' E 014°12'1011.1
2016-Jul-19 18:33N 38°12' E 013°60'1111.1
2016-Jul-19 17:33N 38°10' E 013°46'1111.1
2016-Jul-19 16:33N 38°09' E 013°32'8 7.5
2016-Jul-19 15:32N 38°08' E 013°22'0 0.0
2016-Jul-19 14:32N 38°08' E 013°22'0 0.0
2016-Jul-19 13:32N 38°08' E 013°22'0 0.0
2016-Jul-19 12:29N 38°08' E 013°22'0 0.0
2016-Jul-19 11:32N 38°08' E 013°22'0 0.0
2016-Jul-19 10:32N 38°08' E 013°22'0 0.0
2016-Jul-19 09:32N 38°08' E 013°22'0 0.0
2016-Jul-19 08:32N 38°08' E 013°22'0 0.0
2016-Jul-19 07:32N 38°08' E 013°22'0 0.0
2016-Jul-19 04:32N 38°08' E 013°22'0 0.0
2016-Jul-19 03:32N 38°08' E 013°22'0 0.0
2016-Jul-19 02:32N 38°08' E 013°22'0 0.0
2016-Jul-19 01:32N 38°08' E 013°22'0 0.0
2016-Jul-19 00:32N 38°08' E 013°22'0 0.0
2016-Jul-18 23:32N 38°08' E 013°22'0 0.0
2016-Jul-18 22:32N 38°08' E 013°22'0 0.0
2016-Jul-18 21:32N 38°08' E 013°22'0 0.0
2016-Jul-18 20:32N 38°08' E 013°22'0 0.0
2016-Jul-18 19:32N 38°08' E 013°22'0 0.0
2016-Jul-18 18:32N 38°08' E 013°22'0 0.0
2016-Jul-18 17:32N 38°08' E 013°22'0 0.0
2016-Jul-18 16:32N 38°08' E 013°22'0 0.0
2016-Jul-18 15:32N 38°08' E 013°22'0 0.0
2016-Jul-18 14:32N 38°08' E 013°22'0 0.0
2016-Jul-18 13:32N 38°08' E 013°22'0 0.0
2016-Jul-18 12:32N 38°08' E 013°22'0 0.0
2016-Jul-18 11:32N 38°08' E 013°22'0 0.0
2016-Jul-18 10:32N 38°08' E 013°22'0 0.0
2016-Jul-18 09:32N 38°08' E 013°22'0 0.0
2016-Jul-18 08:32N 38°08' E 013°22'0 0.0
2016-Jul-18 07:32N 38°08' E 013°22'0 0.0
2016-Jul-18 06:32N 38°08' E 013°22'0 0.0
2016-Jul-18 05:32N 38°08' E 013°22'0 0.0
2016-Jul-18 04:32N 38°08' E 013°22'0 0.0
2016-Jul-18 03:32N 38°08' E 013°22'0 0.0
2016-Jul-18 02:32N 38°08' E 013°22'0 0.0
2016-Jul-18 01:32N 38°08' E 013°22'0 0.0
2016-Jul-18 00:32N 38°08' E 013°22'0 0.0
2016-Jul-17 23:32N 38°08' E 013°22'0 0.0
2016-Jul-17 22:32N 38°08' E 013°22'0 0.0
2016-Jul-17 21:32N 38°08' E 013°22'0 0.0
2016-Jul-17 20:32N 38°08' E 013°22'0 0.0
2016-Jul-17 19:32N 38°08' E 013°22'0 0.0
2016-Jul-17 18:32N 38°08' E 013°22'0 0.0
2016-Jul-17 17:32N 38°08' E 013°22'0 0.0
2016-Jul-17 16:32N 38°08' E 013°22'0 0.0
2016-Jul-17 15:32N 38°08' E 013°22'0 0.0
2016-Jul-17 14:32N 38°08' E 013°22'2 2.4
2016-Jul-17 13:33N 38°09' E 013°25'2 2.2
2016-Jul-17 12:34N 38°11' E 013°24'9 8.6
2016-Jul-17 11:33N 38°15' E 013°14'1110.8
2016-Jul-17 10:33N 38°15' E 013°00'1210.9
2016-Jul-17 09:30N 38°15' E 012°46'1010.4
2016-Jul-17 08:33N 38°14' E 012°33'8910.9
2016-Jul-17 00:26N 38°03' E 010°41'1111.1
2016-Jul-16 23:28N 38°02' E 010°28'6511.1
2016-Jul-16 17:33N 37°53' E 009°06'39510.3
2016-Jul-15 03:17N 37°01' E 000°53'10 9.7
2016-Jul-15 02:16N 36°60' E 000°41'7 9.8
2016-Jul-15 01:33N 36°58' E 000°32'10 9.9
2016-Jul-15 00:33N 36°55' E 000°20'1010.1
2016-Jul-14 23:33N 36°53' E 000°08'1010.5
2016-Jul-14 22:33N 36°50' W 000°04'1110.7
2016-Jul-14 21:31N 36°47' W 000°18'1010.7
2016-Jul-14 20:33N 36°44' W 000°30'1110.9
2016-Jul-14 19:33N 36°41' W 000°43'1410.6
2016-Jul-14 18:16N 36°37' W 000°59'20410.2
2016-Jul-13 22:14N 35°56' W 005°07'811.5
2016-Jul-13 21:33N 35°55' W 005°16'3 2.5
2016-Jul-13 20:32N 35°54' W 005°19'0 0.0
2016-Jul-13 19:32N 35°54' W 005°19'0 0.0
2016-Jul-13 18:32N 35°54' W 005°19'1 0.5
2016-Jul-13 17:33N 35°54' W 005°19'1 1.3
2016-Jul-13 16:32N 35°55' W 005°19'0 0.0
2016-Jul-13 15:32N 35°55' W 005°19'0 0.0
2016-Jul-13 14:32N 35°55' W 005°19'0 0.0
2016-Jul-13 13:32N 35°55' W 005°19'0 0.0
2016-Jul-13 12:32N 35°55' W 005°20'0 0.0
2016-Jul-13 11:32N 35°55' W 005°19'0 0.0
2016-Jul-13 10:32N 35°55' W 005°19'0 0.0
2016-Jul-13 09:32N 35°55' W 005°20'0 0.0
2016-Jul-13 08:32N 35°55' W 005°19'0 0.0
2016-Jul-13 07:26N 35°55' W 005°19'0 0.0
2016-Jul-13 06:32N 35°55' W 005°19'0 0.0
2016-Jul-13 05:32N 35°55' W 005°19'0 0.0
2016-Jul-13 04:32N 35°55' W 005°19'4 4.0
2016-Jul-13 03:33N 35°58' W 005°23'11611.4
2016-Jul-12 17:24N 36°14' W 007°45'9110.9
2016-Jul-12 09:05N 36°45' W 009°30'911.0
2016-Jul-12 08:13N 36°54' W 009°35'2311.1
2016-Jul-12 06:08N 37°16' W 009°42'2111.3
2016-Jul-12 04:15N 37°37' W 009°48'811.5
2016-Jul-12 03:33N 37°45' W 009°50'1211.1
2016-Jul-12 02:29N 37°57' W 009°53'1111.5
2016-Jul-12 01:29N 38°08' W 009°56'1111.4
2016-Jul-12 00:33N 38°18' W 009°59'1211.6
2016-Jul-11 23:33N 38°29' W 010°03'1211.6
2016-Jul-11 22:33N 38°41' W 010°06'1411.6
2016-Jul-11 21:23N 38°54' W 010°07'1011.5
2016-Jul-11 20:29N 39°04' W 010°07'1311.5
2016-Jul-11 19:24N 39°17' W 010°09'  

Dump ship's entire track history